Time,TemperatureF,DewpointF,PressureIn,WindDirection,WindDirectionDegrees,WindSpeedMPH,WindSpeedGustMPH,Humidity,HourlyPrecipIn,Conditions,Clouds,dailyrainin,SoftwareType,DateUTC
2018-01-23 00:04:00,49.0,44.7,29.62,SW,225,0.0,12.0,85,0.00,,---,0.00,VWS V14.01,2018-01-23 05:04:00,
2018-01-23 00:09:00,49.0,44.7,29.62,WSW,247,0.0,12.0,85,0.00,,---,0.00,VWS V14.01,2018-01-23 05:09:00,
2018-01-23 00:19:00,48.0,43.7,29.62,WSW,247,4.0,11.0,85,0.00,,---,0.00,VWS V14.01,2018-01-23 05:19:00,
2018-01-23 00:24:00,48.0,43.7,29.62,West,270,7.0,11.0,85,0.00,,---,0.00,VWS V14.01,2018-01-23 05:24:00,
2018-01-23 00:34:00,47.0,43.3,29.63,SSW,202,2.0,6.0,87,0.00,,---,0.00,VWS V14.01,2018-01-23 05:34:00,
2018-01-23 00:39:00,47.0,43.6,29.64,SSE,157,0.0,3.0,88,0.00,,---,0.00,VWS V14.01,2018-01-23 05:39:00,
2018-01-23 00:49:00,47.0,43.6,29.64,SSE,157,0.0,6.0,88,0.00,,---,0.00,VWS V14.01,2018-01-23 05:49:00,
2018-01-23 00:54:00,46.0,43.0,29.64,SSW,202,3.0,10.0,89,0.00,,---,0.00,VWS V14.01,2018-01-23 05:54:00,
2018-01-23 00:59:00,46.0,42.3,29.64,SSW,202,6.0,12.0,87,0.00,,---,0.00,VWS V14.01,2018-01-23 05:59:00,
2018-01-23 01:04:00,46.0,41.8,29.64,SW,225,7.0,9.0,85,0.00,,---,0.00,VWS V14.01,2018-01-23 06:04:00,
2018-01-23 01:09:00,46.0,40.5,29.64,WSW,247,7.0,11.0,81,0.00,,---,0.00,VWS V14.01,2018-01-23 06:09:00,
2018-01-23 01:14:00,46.0,39.5,29.64,West,270,0.0,13.0,78,0.00,,---,0.00,VWS V14.01,2018-01-23 06:14:00,
2018-01-23 01:19:00,46.0,39.2,29.64,SW,225,0.0,9.0,77,0.00,,---,0.00,VWS V14.01,2018-01-23 06:19:00,
2018-01-23 01:24:00,45.0,38.2,29.64,West,270,0.0,7.0,77,0.00,,---,0.00,VWS V14.01,2018-01-23 06:24:00,
2018-01-23 01:29:00,45.0,38.2,29.64,WSW,247,5.0,9.0,77,0.00,,---,0.00,VWS V14.01,2018-01-23 06:29:00,
2018-01-23 01:34:00,45.0,37.2,29.64,WSW,247,0.0,12.0,74,0.00,,---,0.00,VWS V14.01,2018-01-23 06:34:00,
2018-01-23 01:39:00,45.0,37.2,29.64,WSW,247,0.0,10.0,74,0.00,,---,0.00,VWS V14.01,2018-01-23 06:39:00,
2018-01-23 01:44:00,45.0,37.2,29.64,WSW,247,0.0,9.0,74,0.00,,---,0.00,VWS V14.01,2018-01-23 06:44:00,
2018-01-23 01:49:00,44.0,36.3,29.64,SSE,157,9.0,9.0,74,0.00,,---,0.00,VWS V14.01,2018-01-23 06:49:00,
2018-01-23 01:54:00,44.0,36.6,29.64,SW,225,0.0,9.0,75,0.00,,---,0.00,VWS V14.01,2018-01-23 06:54:00,
2018-01-23 01:59:00,44.0,36.6,29.64,SSW,202,2.0,10.0,75,0.00,,---,0.00,VWS V14.01,2018-01-23 06:59:00,
2018-01-23 02:04:00,44.0,36.6,29.64,SSW,202,6.0,8.0,75,0.00,,---,0.00,VWS V14.01,2018-01-23 07:04:00,
2018-01-23 02:09:00,44.0,36.6,29.64,SSW,202,0.0,9.0,75,0.00,,---,0.00,VWS V14.01,2018-01-23 07:09:00,
2018-01-23 02:14:00,43.0,36.0,29.64,SSE,157,0.0,6.0,76,0.00,,---,0.00,VWS V14.01,2018-01-23 07:14:00,
2018-01-23 02:19:00,43.0,36.3,29.65,SSE,157,0.0,6.0,77,0.00,,---,0.00,VWS V14.01,2018-01-23 07:19:00,
2018-01-23 02:29:00,44.0,36.9,29.65,South,180,0.0,6.0,76,0.00,,---,0.00,VWS V14.01,2018-01-23 07:29:00,
2018-01-23 02:34:00,44.0,36.3,29.65,South,180,0.0,6.0,74,0.00,,---,0.00,VWS V14.01,2018-01-23 07:34:00,
2018-01-23 02:44:00,44.0,35.9,29.65,SSE,157,0.0,5.0,73,0.00,,---,0.00,VWS V14.01,2018-01-23 07:44:00,
2018-01-23 02:49:00,44.0,35.9,29.65,South,180,0.0,0.0,73,0.00,,---,0.00,VWS V14.01,2018-01-23 07:49:00,
2018-01-23 02:54:00,43.0,35.0,29.65,WSW,247,0.0,6.0,73,0.00,,---,0.00,VWS V14.01,2018-01-23 07:54:00,
2018-01-23 02:59:00,43.0,35.0,29.66,SSW,202,0.0,5.0,73,0.00,,---,0.00,VWS V14.01,2018-01-23 07:59:00,
2018-01-23 03:04:00,43.0,35.0,29.66,South,180,0.0,8.0,73,0.00,,---,0.00,VWS V14.01,2018-01-23 08:04:00,
2018-01-23 03:09:00,43.0,35.0,29.65,SSE,157,0.0,4.0,73,0.00,,---,0.00,VWS V14.01,2018-01-23 08:09:00,
2018-01-23 03:14:00,43.0,35.3,29.65,South,180,0.0,4.0,74,0.00,,---,0.00,VWS V14.01,2018-01-23 08:14:00,
2018-01-23 03:19:00,43.0,35.3,29.66,SSW,202,0.0,4.0,74,0.00,,---,0.00,VWS V14.01,2018-01-23 08:19:00,
2018-01-23 03:24:00,43.0,35.3,29.66,SW,225,0.0,7.0,74,0.00,,---,0.00,VWS V14.01,2018-01-23 08:24:00,
2018-01-23 03:29:00,43.0,35.0,29.66,SSE,157,0.0,6.0,73,0.00,,---,0.00,VWS V14.01,2018-01-23 08:29:00,
2018-01-23 03:34:00,43.0,34.6,29.66,SSE,157,0.0,9.0,72,0.00,,---,0.00,VWS V14.01,2018-01-23 08:34:00,
2018-01-23 03:39:00,43.0,34.6,29.65,WSW,247,0.0,13.0,72,0.00,,---,0.00,VWS V14.01,2018-01-23 08:39:00,
2018-01-23 03:44:00,43.0,34.2,29.65,SSW,202,9.0,10.0,71,0.00,,---,0.00,VWS V14.01,2018-01-23 08:44:00,
2018-01-23 03:49:00,43.0,34.2,29.65,WSW,247,6.0,11.0,71,0.00,,---,0.00,VWS V14.01,2018-01-23 08:49:00,
2018-01-23 03:54:00,43.0,34.2,29.65,South,180,7.0,11.0,71,0.00,,---,0.00,VWS V14.01,2018-01-23 08:54:00,
2018-01-23 03:59:00,43.0,34.2,29.65,SSW,202,0.0,13.0,71,0.00,,---,0.00,VWS V14.01,2018-01-23 08:59:00,
2018-01-23 04:04:00,43.0,34.2,29.65,SW,225,6.0,12.0,71,0.00,,---,0.00,VWS V14.01,2018-01-23 09:04:00,
2018-01-23 04:09:00,43.0,34.2,29.64,South,180,5.0,16.0,71,0.00,,---,0.00,VWS V14.01,2018-01-23 09:09:00,
2018-01-23 04:14:00,43.0,34.6,29.64,SSW,202,11.0,12.0,72,0.00,,---,0.00,VWS V14.01,2018-01-23 09:14:00,
2018-01-23 04:30:00,43.0,35.0,29.65,SSE,157,7.0,9.0,73,0.00,,---,0.00,VWS V14.01,2018-01-23 09:30:00,
2018-01-23 04:40:00,43.0,35.3,29.66,SSE,157,0.0,6.0,74,0.00,,---,0.00,VWS V14.01,2018-01-23 09:40:00,
2018-01-23 04:45:00,43.0,35.0,29.66,SSW,202,0.0,14.0,73,0.00,,---,0.00,VWS V14.01,2018-01-23 09:45:00,
2018-01-23 04:50:00,43.0,35.3,29.66,SSW,202,12.0,15.0,74,0.00,,---,0.00,VWS V14.01,2018-01-23 09:50:00,
2018-01-23 04:55:00,43.0,35.3,29.66,SSW,202,0.0,9.0,74,0.00,,---,0.00,VWS V14.01,2018-01-23 09:55:00,
2018-01-23 05:00:00,43.0,35.3,29.66,SW,225,10.0,13.0,74,0.00,,---,0.00,VWS V14.01,2018-01-23 10:00:00,
2018-01-23 05:05:00,43.0,35.6,29.66,WSW,247,0.0,8.0,75,0.00,,---,0.00,VWS V14.01,2018-01-23 10:05:00,
2018-01-23 05:15:00,41.0,36.2,29.67,West,270,7.0,12.0,83,0.00,,---,0.00,VWS V14.01,2018-01-23 10:15:00,
2018-01-23 05:20:00,41.0,36.5,29.68,WSW,247,5.0,10.0,84,0.00,,---,0.00,VWS V14.01,2018-01-23 10:20:00,
2018-01-23 05:26:00,40.0,36.5,29.69,West,270,6.0,13.0,87,0.00,,---,0.00,VWS V14.01,2018-01-23 10:26:00,
2018-01-23 05:31:00,40.0,36.7,29.69,WSW,247,11.0,12.0,88,0.00,,---,0.00,VWS V14.01,2018-01-23 10:31:00,
2018-01-23 05:36:00,40.0,37.0,29.70,WSW,247,6.0,14.0,89,0.00,,---,0.00,VWS V14.01,2018-01-23 10:36:00,
2018-01-23 05:41:00,40.0,37.0,29.70,WSW,247,10.0,17.0,89,0.00,,---,0.00,VWS V14.01,2018-01-23 10:41:00,
2018-01-23 05:46:00,40.0,37.0,29.70,WSW,247,10.0,15.0,89,0.00,,---,0.00,VWS V14.01,2018-01-23 10:46:00,
2018-01-23 05:51:00,40.0,37.0,29.70,WSW,247,13.0,16.0,89,0.00,,---,0.00,VWS V14.01,2018-01-23 10:51:00,
2018-01-23 05:57:00,39.0,36.3,29.71,West,270,0.0,15.0,90,0.00,,---,0.00,VWS V14.01,2018-01-23 10:57:00,
2018-01-23 06:02:00,39.0,36.6,29.71,West,270,13.0,13.0,91,0.00,,---,0.00,VWS V14.01,2018-01-23 11:02:00,
2018-01-23 06:12:00,38.0,36.2,29.72,WSW,247,13.0,21.0,93,0.01,,---,0.01,VWS V14.01,2018-01-23 11:12:00,
2018-01-23 06:17:00,37.0,35.7,29.74,WSW,247,11.0,26.0,95,0.01,,---,0.01,VWS V14.01,2018-01-23 11:17:00,
2018-01-23 06:22:00,36.0,34.7,29.74,WSW,247,3.0,15.0,95,0.01,,---,0.01,VWS V14.01,2018-01-23 11:22:00,
2018-01-23 06:27:00,36.0,34.7,29.74,SW,225,2.0,16.0,95,0.02,,---,0.02,VWS V14.01,2018-01-23 11:27:00,
2018-01-23 06:32:00,36.0,34.7,29.74,WSW,247,7.0,13.0,95,0.02,,---,0.02,VWS V14.01,2018-01-23 11:32:00,
2018-01-23 06:37:00,36.0,34.7,29.74,South,180,4.0,11.0,95,0.02,,---,0.02,VWS V14.01,2018-01-23 11:37:00,
2018-01-23 06:42:00,36.0,34.7,29.74,WSW,247,7.0,10.0,95,0.02,,---,0.02,VWS V14.01,2018-01-23 11:42:00,
2018-01-23 06:47:00,36.0,34.7,29.74,SW,225,0.0,10.0,95,0.02,,---,0.02,VWS V14.01,2018-01-23 11:47:00,
2018-01-23 06:52:00,36.0,34.7,29.74,SSW,202,0.0,10.0,95,0.02,,---,0.02,VWS V14.01,2018-01-23 11:52:00,
2018-01-23 06:58:00,36.0,34.4,29.74,SSW,202,3.0,12.0,94,0.02,,---,0.02,VWS V14.01,2018-01-23 11:58:00,
2018-01-23 07:03:00,36.0,34.4,29.74,NW,315,0.0,9.0,94,0.02,,---,0.02,VWS V14.01,2018-01-23 12:03:00,
2018-01-23 07:08:00,36.0,34.4,29.75,WSW,247,0.0,12.0,94,0.02,,---,0.02,VWS V14.01,2018-01-23 12:08:00,
2018-01-23 07:13:00,36.0,34.4,29.75,WSW,247,12.0,13.0,94,0.02,,---,0.02,VWS V14.01,2018-01-23 12:13:00,
2018-01-23 07:23:00,36.0,34.4,29.75,SSW,202,0.0,10.0,94,0.01,,---,0.02,VWS V14.01,2018-01-23 12:23:00,
2018-01-23 07:28:00,36.0,34.4,29.76,ESE,112,4.0,11.0,94,0.00,,---,0.02,VWS V14.01,2018-01-23 12:28:00,
2018-01-23 07:33:00,36.0,34.4,29.76,WSW,247,0.0,7.0,94,0.00,,---,0.02,VWS V14.01,2018-01-23 12:33:00,
2018-01-23 07:38:00,36.0,34.7,29.76,WSW,247,8.0,11.0,95,0.00,,---,0.02,VWS V14.01,2018-01-23 12:38:00,
2018-01-23 07:43:00,36.0,34.7,29.76,SSW,202,7.0,8.0,95,0.00,,---,0.02,VWS V14.01,2018-01-23 12:43:00,
2018-01-23 07:49:00,36.0,34.7,29.76,SSW,202,0.0,12.0,95,0.00,,---,0.02,VWS V14.01,2018-01-23 12:49:00,
2018-01-23 07:54:00,36.0,34.7,29.76,SSW,202,0.0,9.0,95,0.00,,---,0.02,VWS V14.01,2018-01-23 12:54:00,
2018-01-23 07:59:00,36.0,34.7,29.76,SSW,202,0.0,7.0,95,0.00,,---,0.02,VWS V14.01,2018-01-23 12:59:00,
2018-01-23 08:09:00,36.0,34.7,29.76,WSW,247,0.0,12.0,95,0.00,,---,0.02,VWS V14.01,2018-01-23 13:09:00,
2018-01-23 08:14:00,36.0,34.4,29.76,SW,225,5.0,15.0,94,0.00,,---,0.02,VWS V14.01,2018-01-23 13:14:00,
2018-01-23 08:19:00,36.0,34.7,29.77,SW,225,0.0,12.0,95,0.00,,---,0.02,VWS V14.01,2018-01-23 13:19:00,
2018-01-23 08:24:00,36.0,34.7,29.77,WSW,247,0.0,7.0,95,0.00,,---,0.02,VWS V14.01,2018-01-23 13:24:00,
2018-01-23 08:29:00,35.0,33.7,29.78,WSW,247,7.0,15.0,95,0.00,,---,0.02,VWS V14.01,2018-01-23 13:29:00,
2018-01-23 08:34:00,35.0,33.7,29.78,WSW,247,9.0,16.0,95,0.01,,---,0.03,VWS V14.01,2018-01-23 13:34:00,
2018-01-23 08:39:00,35.0,33.7,29.78,SW,225,6.0,16.0,95,0.01,,---,0.03,VWS V14.01,2018-01-23 13:39:00,
2018-01-23 08:44:00,35.0,33.7,29.78,WSW,247,9.0,15.0,95,0.01,,---,0.03,VWS V14.01,2018-01-23 13:44:00,
2018-01-23 08:49:00,35.0,33.7,29.79,SSW,202,0.0,17.0,95,0.01,,---,0.04,VWS V14.01,2018-01-23 13:49:00,
2018-01-23 08:54:00,35.0,33.7,29.79,WSW,247,6.0,13.0,95,0.02,,---,0.04,VWS V14.01,2018-01-23 13:54:00,
2018-01-23 08:59:00,35.0,33.7,29.80,West,270,4.0,17.0,95,0.02,,---,0.04,VWS V14.01,2018-01-23 13:59:00,
2018-01-23 09:09:00,35.0,33.7,29.80,WSW,247,12.0,17.0,95,0.02,,---,0.04,VWS V14.01,2018-01-23 14:09:00,
2018-01-23 09:14:00,35.0,33.7,29.80,WSW,247,2.0,18.0,95,0.02,,---,0.04,VWS V14.01,2018-01-23 14:14:00,
2018-01-23 09:19:00,35.0,33.7,29.80,WSW,247,9.0,18.0,95,0.02,,---,0.04,VWS V14.01,2018-01-23 14:19:00,
2018-01-23 09:24:00,35.0,33.7,29.80,SSW,202,10.0,12.0,95,0.02,,---,0.04,VWS V14.01,2018-01-23 14:24:00,
2018-01-23 09:34:00,35.0,33.7,29.82,West,270,7.0,15.0,95,0.02,,---,0.04,VWS V14.01,2018-01-23 14:34:00,
2018-01-23 09:39:00,35.0,33.7,29.82,WSW,247,6.0,17.0,95,0.01,,---,0.04,VWS V14.01,2018-01-23 14:39:00,
2018-01-23 09:49:00,35.0,33.7,29.82,WSW,247,9.0,13.0,95,0.01,,---,0.04,VWS V14.01,2018-01-23 14:49:00,
2018-01-23 09:59:00,35.0,33.7,29.82,West,270,6.0,13.0,95,0.00,,---,0.04,VWS V14.01,2018-01-23 14:59:00,
2018-01-23 10:04:00,35.0,33.7,29.82,West,270,6.0,11.0,95,0.00,,---,0.04,VWS V14.01,2018-01-23 15:04:00,
2018-01-23 10:09:00,35.0,33.7,29.83,WSW,247,6.0,12.0,95,0.00,,---,0.04,VWS V14.01,2018-01-23 15:09:00,
2018-01-23 10:19:00,35.0,33.7,29.84,WSW,247,6.0,13.0,95,0.00,,---,0.04,VWS V14.01,2018-01-23 15:19:00,
2018-01-23 10:24:00,35.0,33.7,29.84,WSW,247,3.0,12.0,95,0.00,,---,0.04,VWS V14.01,2018-01-23 15:24:00,
2018-01-23 10:29:00,35.0,33.7,29.84,WSW,247,4.0,16.0,95,0.00,,---,0.04,VWS V14.01,2018-01-23 15:29:00,
2018-01-23 10:34:00,35.0,33.7,29.84,SSW,202,8.0,12.0,95,0.00,,---,0.04,VWS V14.01,2018-01-23 15:34:00,
2018-01-23 10:39:00,35.0,33.7,29.84,WSW,247,6.0,10.0,95,0.00,,---,0.04,VWS V14.01,2018-01-23 15:39:00,
2018-01-23 10:49:00,35.0,33.7,29.85,WSW,247,8.0,12.0,95,0.00,,---,0.04,VWS V14.01,2018-01-23 15:49:00,
2018-01-23 10:54:00,35.0,33.7,29.85,West,270,0.0,14.0,95,0.00,,---,0.04,VWS V14.01,2018-01-23 15:54:00,
2018-01-23 11:04:00,35.0,33.7,29.85,WSW,247,7.0,14.0,95,0.00,,---,0.04,VWS V14.01,2018-01-23 16:04:00,
2018-01-23 11:14:00,35.0,33.7,29.86,WNW,292,0.0,7.0,95,0.00,,---,0.04,VWS V14.01,2018-01-23 16:14:00,
2018-01-23 11:29:00,36.0,34.7,29.86,SSW,202,9.0,18.0,95,0.00,,---,0.04,VWS V14.01,2018-01-23 16:29:00,
2018-01-23 11:39:00,36.0,34.7,29.86,WSW,247,6.0,16.0,95,0.00,,---,0.04,VWS V14.01,2018-01-23 16:39:00,
2018-01-23 11:49:00,36.0,34.7,29.86,WSW,247,7.0,15.0,95,0.00,,---,0.04,VWS V14.01,2018-01-23 16:49:00,
2018-01-23 11:54:00,36.0,34.7,29.86,WSW,247,0.0,13.0,95,0.00,,---,0.04,VWS V14.01,2018-01-23 16:54:00,
2018-01-23 11:59:00,37.0,36.0,29.86,SSW,202,9.0,13.0,96,0.00,,---,0.04,VWS V14.01,2018-01-23 16:59:00,
2018-01-23 12:09:00,37.0,36.0,29.86,WSW,247,10.0,15.0,96,0.00,,---,0.04,VWS V14.01,2018-01-23 17:09:00,
2018-01-23 12:14:00,38.0,36.4,29.86,SW,225,9.0,19.0,94,0.00,,---,0.04,VWS V14.01,2018-01-23 17:14:00,
2018-01-23 12:19:00,38.0,36.7,29.86,SSW,202,1.0,16.0,95,0.00,,---,0.04,VWS V14.01,2018-01-23 17:19:00,
2018-01-23 12:29:00,38.0,35.6,29.85,WSW,247,9.0,20.0,91,0.00,,---,0.04,VWS V14.01,2018-01-23 17:29:00,
2018-01-23 12:34:00,39.0,36.6,29.85,SW,225,10.0,15.0,91,0.00,,---,0.04,VWS V14.01,2018-01-23 17:34:00,
2018-01-23 12:39:00,39.0,36.6,29.85,SW,225,0.0,15.0,91,0.00,,---,0.04,VWS V14.01,2018-01-23 17:39:00,
2018-01-23 12:45:00,39.0,36.3,29.85,WSW,247,7.0,14.0,90,0.00,,---,0.04,VWS V14.01,2018-01-23 17:45:00,
2018-01-23 12:50:00,39.0,36.3,29.85,WSW,247,11.0,14.0,90,0.00,,---,0.04,VWS V14.01,2018-01-23 17:50:00,
2018-01-23 12:55:00,39.0,35.8,29.85,West,270,10.0,17.0,88,0.00,,---,0.04,VWS V14.01,2018-01-23 17:55:00,
2018-01-23 13:00:00,39.0,36.0,29.85,West,270,7.0,14.0,89,0.00,,---,0.04,VWS V14.01,2018-01-23 18:00:00,
2018-01-23 13:05:00,39.0,36.0,29.85,WSW,247,10.0,19.0,89,0.00,,---,0.04,VWS V14.01,2018-01-23 18:05:00,
2018-01-23 13:11:00,39.0,35.8,29.86,SW,225,9.0,18.0,88,0.00,,---,0.04,VWS V14.01,2018-01-23 18:11:00,
2018-01-23 13:21:00,39.0,36.0,29.86,West,270,8.0,15.0,89,0.00,,---,0.04,VWS V14.01,2018-01-23 18:21:00,
2018-01-23 13:26:00,39.0,35.8,29.86,SW,225,5.0,15.0,88,0.00,,---,0.04,VWS V14.01,2018-01-23 18:26:00,
2018-01-23 13:31:00,38.0,34.8,29.86,WSW,247,10.0,14.0,88,0.00,,---,0.04,VWS V14.01,2018-01-23 18:31:00,
2018-01-23 13:36:00,38.0,34.8,29.87,WSW,247,9.0,15.0,88,0.00,,---,0.04,VWS V14.01,2018-01-23 18:36:00,
2018-01-23 13:41:00,38.0,35.0,29.87,WSW,247,17.0,20.0,89,0.00,,---,0.04,VWS V14.01,2018-01-23 18:41:00,
2018-01-23 13:51:00,37.0,34.3,29.88,West,270,14.0,20.0,90,0.00,,---,0.04,VWS V14.01,2018-01-23 18:51:00,
2018-01-23 13:56:00,38.0,35.3,29.87,West,270,16.0,16.0,90,0.00,,---,0.04,VWS V14.01,2018-01-23 18:56:00,
2018-01-23 14:06:00,38.0,35.3,29.88,WSW,247,12.0,12.0,90,0.00,,---,0.04,VWS V14.01,2018-01-23 19:06:00,
2018-01-23 14:12:00,38.0,35.3,29.88,West,270,0.0,13.0,90,0.00,,---,0.04,VWS V14.01,2018-01-23 19:12:00,
2018-01-23 14:17:00,38.0,35.3,29.88,WSW,247,10.0,13.0,90,0.00,,---,0.04,VWS V14.01,2018-01-23 19:17:00,
2018-01-23 14:22:00,38.0,35.6,29.88,WSW,247,6.0,18.0,91,0.00,,---,0.04,VWS V14.01,2018-01-23 19:22:00,
2018-01-23 14:27:00,37.0,34.9,29.89,SSW,202,1.0,19.0,92,0.00,,---,0.04,VWS V14.01,2018-01-23 19:27:00,
2018-01-23 14:32:00,37.0,35.2,29.89,WSW,247,6.0,19.0,93,0.00,,---,0.04,VWS V14.01,2018-01-23 19:32:00,
2018-01-23 14:37:00,37.0,35.4,29.90,WSW,247,6.0,13.0,94,0.00,,---,0.04,VWS V14.01,2018-01-23 19:37:00,
2018-01-23 14:42:00,37.0,35.4,29.90,WSW,247,4.0,17.0,94,0.00,,---,0.04,VWS V14.01,2018-01-23 19:42:00,
2018-01-23 14:44:00,37.0,35.7,29.90,WSW,247,10.0,10.0,95,0.00,,---,0.04,VWS V14.01,2018-01-23 19:44:00,
2018-01-23 14:49:00,37.0,35.7,29.90,SW,225,10.0,17.0,95,0.00,,---,0.04,VWS V14.01,2018-01-23 19:49:00,
2018-01-23 14:55:00,37.0,36.0,29.90,West,270,5.0,15.0,96,0.00,,---,0.04,VWS V14.01,2018-01-23 19:55:00,
2018-01-23 15:00:00,37.0,36.0,29.91,WSW,247,7.0,7.0,96,0.00,,---,0.04,VWS V14.01,2018-01-23 20:00:00,
2018-01-23 15:05:00,36.0,34.7,29.91,SSW,202,0.0,7.0,95,0.00,,---,0.04,VWS V14.01,2018-01-23 20:05:00,
2018-01-23 15:10:00,36.0,34.7,29.91,WSW,247,2.0,7.0,95,0.00,,---,0.04,VWS V14.01,2018-01-23 20:10:00,
2018-01-23 15:15:00,36.0,34.7,29.91,WSW,247,7.0,13.0,95,0.00,,---,0.04,VWS V14.01,2018-01-23 20:15:00,
2018-01-23 15:20:00,36.0,34.7,29.92,WSW,247,0.0,7.0,95,0.00,,---,0.04,VWS V14.01,2018-01-23 20:20:00,
2018-01-23 15:25:00,36.0,34.7,29.92,West,270,3.0,15.0,95,0.00,,---,0.04,VWS V14.01,2018-01-23 20:25:00,
2018-01-23 15:29:00,36.0,34.7,29.93,WSW,247,7.0,13.0,95,0.00,,---,0.04,VWS V14.01,2018-01-23 20:29:00,
2018-01-23 15:35:00,36.0,34.7,29.93,WSW,247,9.0,15.0,95,0.00,,---,0.04,VWS V14.01,2018-01-23 20:35:00,
2018-01-23 15:40:00,36.0,34.7,29.93,SW,225,11.0,11.0,95,0.00,,---,0.04,VWS V14.01,2018-01-23 20:40:00,
2018-01-23 15:45:00,36.0,34.7,29.93,West,270,12.0,21.0,95,0.00,,---,0.04,VWS V14.01,2018-01-23 20:45:00,
2018-01-23 15:50:00,36.0,34.7,29.94,WSW,247,7.0,12.0,95,0.00,,---,0.04,VWS V14.01,2018-01-23 20:50:00,
2018-01-23 15:55:00,36.0,34.7,29.94,WSW,247,7.0,9.0,95,0.00,,---,0.04,VWS V14.01,2018-01-23 20:55:00,
2018-01-23 16:00:00,36.0,34.7,29.95,SSW,202,0.0,12.0,95,0.00,,---,0.04,VWS V14.01,2018-01-23 21:00:00,
2018-01-23 16:16:00,36.0,34.7,29.95,WSW,247,0.0,9.0,95,0.00,,---,0.04,VWS V14.01,2018-01-23 21:16:00,
2018-01-23 16:21:00,36.0,34.7,29.96,WSW,247,5.0,9.0,95,0.00,,---,0.04,VWS V14.01,2018-01-23 21:21:00,
2018-01-23 16:31:00,36.0,34.7,29.96,SW,225,0.0,12.0,95,0.00,,---,0.04,VWS V14.01,2018-01-23 21:31:00,
2018-01-23 16:36:00,36.0,34.7,29.96,WSW,247,0.0,6.0,95,0.00,,---,0.04,VWS V14.01,2018-01-23 21:36:00,
2018-01-23 16:41:00,36.0,34.7,29.97,WSW,247,0.0,5.0,95,0.00,,---,0.04,VWS V14.01,2018-01-23 21:41:00,
2018-01-23 16:46:00,36.0,34.7,29.97,SW,225,15.0,15.0,95,0.00,,---,0.04,VWS V14.01,2018-01-23 21:46:00,
2018-01-23 16:51:00,36.0,34.7,29.97,WSW,247,12.0,16.0,95,0.00,,---,0.04,VWS V14.01,2018-01-23 21:51:00,
2018-01-23 16:56:00,36.0,34.7,29.98,WSW,247,7.0,10.0,95,0.00,,---,0.04,VWS V14.01,2018-01-23 21:56:00,
2018-01-23 17:01:00,36.0,34.7,29.98,WSW,247,9.0,12.0,95,0.00,,---,0.04,VWS V14.01,2018-01-23 22:01:00,
2018-01-23 17:06:00,36.0,34.7,29.98,WSW,247,12.0,17.0,95,0.00,,---,0.04,VWS V14.01,2018-01-23 22:06:00,
2018-01-23 17:12:00,36.0,34.7,29.98,WSW,247,7.0,15.0,95,0.00,,---,0.04,VWS V14.01,2018-01-23 22:12:00,
2018-01-23 17:17:00,37.0,36.0,29.98,West,270,11.0,14.0,96,0.00,,---,0.04,VWS V14.01,2018-01-23 22:17:00,
2018-01-23 17:22:00,36.0,34.7,29.98,West,270,4.0,17.0,95,0.00,,---,0.04,VWS V14.01,2018-01-23 22:22:00,
2018-01-23 17:27:00,37.0,36.0,29.98,West,270,8.0,16.0,96,0.00,,---,0.04,VWS V14.01,2018-01-23 22:27:00,
2018-01-23 17:32:00,37.0,36.0,29.98,WNW,292,7.0,12.0,96,0.00,,---,0.04,VWS V14.01,2018-01-23 22:32:00,